createdAt,value
2017-06-20T00:00:31.139Z,23.69
2017-06-20T00:02:58.645Z,23.61
2017-06-20T00:05:26.199Z,23.72
2017-06-20T00:07:53.714Z,24.10
2017-06-20T00:10:21.268Z,24.18
2017-06-20T00:12:48.784Z,24.31
2017-06-20T00:15:16.363Z,24.26
2017-06-20T00:17:43.876Z,23.93
2017-06-20T00:20:11.384Z,23.62
2017-06-20T00:22:38.955Z,23.37
2017-06-20T00:25:06.573Z,23.34
2017-06-20T00:27:34.166Z,23.22
2017-06-20T00:30:01.684Z,23.15
2017-06-20T00:32:29.479Z,23.02
2017-06-20T00:34:56.987Z,22.79
2017-06-20T00:37:24.539Z,22.90
2017-06-20T00:39:52.087Z,22.83
2017-06-20T00:42:19.611Z,22.62
2017-06-20T00:44:47.150Z,22.72
2017-06-20T00:47:14.662Z,23.36
2017-06-20T00:49:42.303Z,23.32
2017-06-20T00:52:09.811Z,23.42
2017-06-20T00:54:37.351Z,23.49
2017-06-20T00:57:04.855Z,23.43
2017-06-20T00:59:32.397Z,23.43
2017-06-20T01:01:59.907Z,23.44
2017-06-20T01:04:27.480Z,23.37
2017-06-20T01:06:54.994Z,23.24
2017-06-20T01:09:22.520Z,23.16
2017-06-20T01:11:50.115Z,23.15
2017-06-20T01:14:17.636Z,23.24
2017-06-20T01:16:45.183Z,23.23
2017-06-20T01:19:12.690Z,23.27
2017-06-20T01:21:40.267Z,23.25
2017-06-20T01:24:07.823Z,23.38
2017-06-20T01:26:35.362Z,23.41
2017-06-20T01:29:02.883Z,23.28
2017-06-20T01:31:30.456Z,23.41
2017-06-20T01:33:57.982Z,23.24
2017-06-20T01:36:25.663Z,23.17
2017-06-20T01:38:53.256Z,23.10
2017-06-20T01:41:20.776Z,23.04
2017-06-20T01:43:48.676Z,23.04
2017-06-20T01:46:16.194Z,23.20
2017-06-20T01:48:43.803Z,22.90
2017-06-20T01:51:11.307Z,22.57
2017-06-20T01:53:38.891Z,22.35
2017-06-20T01:56:06.408Z,22.36
2017-06-20T01:58:33.943Z,22.33
2017-06-20T02:01:01.544Z,22.21
2017-06-20T02:03:29.199Z,22.11
2017-06-20T02:05:56.750Z,21.99
2017-06-20T02:08:24.378Z,21.84
2017-06-20T02:10:51.879Z,21.74
2017-06-20T02:13:19.568Z,21.79
2017-06-20T02:15:47.171Z,22.06
2017-06-20T02:18:14.710Z,22.42
2017-06-20T02:20:42.250Z,22.31
2017-06-20T02:23:09.827Z,22.48
2017-06-20T02:25:37.350Z,22.57
2017-06-20T02:28:04.872Z,22.18
2017-06-20T02:30:32.459Z,22.01
2017-06-20T02:32:59.977Z,21.91
2017-06-20T02:35:27.511Z,21.87
2017-06-20T02:37:55.024Z,21.73
2017-06-20T02:40:22.562Z,21.76
2017-06-20T02:42:50.094Z,21.84
2017-06-20T02:45:17.646Z,21.98
2017-06-20T02:47:45.167Z,22.21
2017-06-20T02:50:12.699Z,22.37
2017-06-20T02:52:40.210Z,22.43
2017-06-20T02:55:07.819Z,22.38
2017-06-20T02:57:35.327Z,22.01
2017-06-20T03:00:02.844Z,21.75
2017-06-20T03:02:30.400Z,21.57
2017-06-20T03:04:57.927Z,21.56
2017-06-20T03:07:25.522Z,21.50
2017-06-20T03:09:53.051Z,21.83
2017-06-20T03:12:20.722Z,21.93
2017-06-20T03:14:48.267Z,21.89
2017-06-20T03:17:15.795Z,21.65
2017-06-20T03:19:43.311Z,21.91
2017-06-20T03:22:10.865Z,21.94
2017-06-20T03:24:38.378Z,21.97
2017-06-20T03:27:05.894Z,21.97
2017-06-20T03:29:33.424Z,21.83
2017-06-20T03:32:00.961Z,21.43
2017-06-20T03:34:28.479Z,21.05
2017-06-20T03:36:56.020Z,20.69
2017-06-20T03:39:23.563Z,20.78
2017-06-20T03:41:51.079Z,20.51
2017-06-20T03:44:18.636Z,20.53
2017-06-20T03:46:46.154Z,20.61
2017-06-20T03:49:13.682Z,20.92
2017-06-20T03:51:41.222Z,21.05
2017-06-20T03:54:08.742Z,21.06
2017-06-20T03:56:36.311Z,21.28
2017-06-20T03:59:03.880Z,21.46
2017-06-20T04:01:31.484Z,21.48
2017-06-20T04:03:59.040Z,21.64
2017-06-20T04:06:26.676Z,21.62
2017-06-20T04:08:54.283Z,21.56
2017-06-20T04:11:21.815Z,21.51
2017-06-20T04:13:49.735Z,21.55
2017-06-20T04:16:17.268Z,21.55
2017-06-20T04:18:44.784Z,21.73
2017-06-20T04:21:17.776Z,21.40
2017-06-20T04:23:45.312Z,21.12
2017-06-20T04:26:12.846Z,21.16
2017-06-20T04:28:40.415Z,21.22
2017-06-20T04:31:07.941Z,21.36
2017-06-20T04:33:35.483Z,21.57
2017-06-20T04:36:02.996Z,21.39
2017-06-20T04:38:30.506Z,21.57
2017-06-20T04:40:58.067Z,21.57
2017-06-20T04:43:25.635Z,21.33
2017-06-20T04:45:53.197Z,21.17
2017-06-20T04:48:20.720Z,21.22
2017-06-20T04:50:48.256Z,21.58
2017-06-20T04:53:15.776Z,21.78
2017-06-20T04:55:43.349Z,21.83
2017-06-20T04:58:10.895Z,21.95
2017-06-20T05:00:38.438Z,22.00
2017-06-20T05:03:05.988Z,22.03
2017-06-20T05:05:33.587Z,22.18
2017-06-20T05:08:01.139Z,22.11
2017-06-20T05:10:28.715Z,22.10
2017-06-20T05:12:56.307Z,22.17
2017-06-20T05:15:23.879Z,22.08
2017-06-20T05:17:51.405Z,21.98
2017-06-20T05:20:19.051Z,22.08
2017-06-20T05:22:46.579Z,22.02
2017-06-20T05:25:14.119Z,22.06
2017-06-20T05:27:41.631Z,22.30
2017-06-20T05:30:09.243Z,22.42
2017-06-20T05:32:36.825Z,22.51
2017-06-20T05:35:04.335Z,22.59
2017-06-20T05:37:32.258Z,22.59
2017-06-20T05:39:59.811Z,22.65
2017-06-20T05:42:27.342Z,22.77
2017-06-20T05:44:54.950Z,22.87
2017-06-20T05:47:22.512Z,22.92
2017-06-20T05:49:50.131Z,22.95
2017-06-20T05:52:17.705Z,23.06
2017-06-20T05:54:45.291Z,23.04
2017-06-20T05:57:12.824Z,23.02
2017-06-20T05:59:40.363Z,23.10
2017-06-20T06:02:07.991Z,23.10
2017-06-20T06:04:35.523Z,23.10
2017-06-20T06:07:03.074Z,23.26
2017-06-20T06:09:30.602Z,23.35
2017-06-20T06:11:58.115Z,23.38
2017-06-20T06:14:25.685Z,23.32
2017-06-20T06:16:53.224Z,23.37
2017-06-20T06:19:20.759Z,23.54
2017-06-20T06:21:48.280Z,23.53
2017-06-20T06:24:15.799Z,23.66
2017-06-20T06:26:43.603Z,23.79
2017-06-20T06:29:11.151Z,23.88
2017-06-20T06:31:38.664Z,23.88
2017-06-20T06:34:06.566Z,23.84
2017-06-20T06:36:34.083Z,23.74
2017-06-20T06:39:01.603Z,23.71
2017-06-20T06:41:29.162Z,23.73
2017-06-20T06:43:56.675Z,23.80
2017-06-20T06:46:24.218Z,23.94
2017-06-20T06:48:51.735Z,24.05
2017-06-20T06:51:19.287Z,24.10
2017-06-20T06:53:46.828Z,24.20
2017-06-20T06:56:14.435Z,24.21
2017-06-20T06:58:41.969Z,24.29
2017-06-20T07:01:09.475Z,24.38
2017-06-20T07:03:37.010Z,24.41
2017-06-20T07:06:04.547Z,24.42
2017-06-20T07:08:32.095Z,24.51
2017-06-20T07:10:59.598Z,24.59
2017-06-20T07:13:27.215Z,24.62
2017-06-20T07:15:54.855Z,24.71
2017-06-20T07:18:22.396Z,24.71
2017-06-20T07:20:49.959Z,24.72
2017-06-20T07:23:17.539Z,24.73
2017-06-20T07:25:45.159Z,24.85
2017-06-20T07:28:12.720Z,24.91
2017-06-20T07:30:40.301Z,24.96
2017-06-20T07:33:07.820Z,25.06
2017-06-20T07:35:35.367Z,25.20
2017-06-20T07:38:02.876Z,25.13
2017-06-20T07:40:30.435Z,25.11
2017-06-20T07:42:57.959Z,25.24
2017-06-20T07:45:25.494Z,25.15
2017-06-20T07:47:53.007Z,25.25
2017-06-20T07:50:20.570Z,25.31
2017-06-20T07:52:48.947Z,25.33
2017-06-20T07:55:16.495Z,25.41
2017-06-20T07:57:44.018Z,25.46
2017-06-20T08:00:11.571Z,25.42
2017-06-20T08:02:39.091Z,25.47
2017-06-20T08:05:06.607Z,25.56
2017-06-20T08:07:34.142Z,25.64
2017-06-20T08:10:01.682Z,25.75
2017-06-20T08:12:29.302Z,25.77
2017-06-20T08:14:56.813Z,25.77
2017-06-20T08:17:24.384Z,25.80
2017-06-20T08:19:51.946Z,25.92
2017-06-20T08:22:19.491Z,26.01
2017-06-20T08:24:47.029Z,26.26
2017-06-20T08:27:14.543Z,26.37
2017-06-20T08:29:42.087Z,26.42
2017-06-20T08:32:09.599Z,26.40
2017-06-20T08:34:37.162Z,26.53
2017-06-20T08:37:10.227Z,26.54
2017-06-20T08:39:37.779Z,26.50
2017-06-20T08:42:05.347Z,26.63
2017-06-20T08:44:32.891Z,26.74
2017-06-20T08:47:00.432Z,26.80
2017-06-20T08:49:27.971Z,26.78
2017-06-20T08:51:55.486Z,26.91
2017-06-20T08:54:23.068Z,26.94
2017-06-20T08:56:50.587Z,27.05
2017-06-20T08:59:18.135Z,27.10
2017-06-20T09:01:45.680Z,27.18
2017-06-20T09:04:13.230Z,27.54
2017-06-20T09:06:40.740Z,27.52
2017-06-20T09:09:08.271Z,27.53
2017-06-20T09:11:35.802Z,27.57
2017-06-20T09:14:03.365Z,27.63
2017-06-20T09:16:30.939Z,27.88
2017-06-20T09:18:58.478Z,27.79
2017-06-20T09:21:26.039Z,27.83
2017-06-20T09:23:53.560Z,27.77
2017-06-20T09:26:21.115Z,27.90
2017-06-20T09:28:48.635Z,27.97
2017-06-20T09:31:16.190Z,27.99
2017-06-20T09:33:43.700Z,28.27
2017-06-20T09:36:11.260Z,28.47
2017-06-20T09:38:38.783Z,28.45
2017-06-20T09:41:06.363Z,28.54
2017-06-20T09:43:33.890Z,28.69
2017-06-20T09:46:01.439Z,28.67
2017-06-20T09:48:28.963Z,28.59
2017-06-20T09:50:56.514Z,28.82
2017-06-20T09:53:24.047Z,28.88
2017-06-20T09:55:51.653Z,28.87
2017-06-20T09:58:19.231Z,29.04
2017-06-20T10:00:46.759Z,29.02
2017-06-20T10:03:14.302Z,29.14
2017-06-20T10:05:41.811Z,29.11
2017-06-20T10:08:09.355Z,29.22
2017-06-20T10:10:36.924Z,29.25
2017-06-20T10:13:04.499Z,29.53
2017-06-20T10:15:32.005Z,29.57
2017-06-20T10:17:59.515Z,29.57
2017-06-20T10:20:27.063Z,29.77
2017-06-20T10:22:54.583Z,30.06
2017-06-20T10:25:22.163Z,30.04
2017-06-20T10:27:49.680Z,30.19
2017-06-20T10:30:17.224Z,30.22
2017-06-20T10:32:44.732Z,30.29
2017-06-20T10:35:12.265Z,30.40
2017-06-20T10:37:39.775Z,30.51
2017-06-20T10:40:07.355Z,30.48
2017-06-20T10:42:34.875Z,30.34
2017-06-20T10:45:02.424Z,30.31
2017-06-20T10:47:29.948Z,30.32
2017-06-20T10:49:57.500Z,30.44
2017-06-20T10:52:25.008Z,30.46
2017-06-20T10:54:52.579Z,30.38
2017-06-20T10:57:20.104Z,30.34
2017-06-20T10:59:47.672Z,30.58
2017-06-20T11:02:15.192Z,30.64
2017-06-20T11:04:42.712Z,30.70
2017-06-20T11:07:10.258Z,30.85
2017-06-20T11:09:37.791Z,31.00
2017-06-20T11:12:05.339Z,31.21
2017-06-20T11:14:32.860Z,31.21
2017-06-20T11:17:00.413Z,31.23
2017-06-20T11:19:27.955Z,31.29
2017-06-20T11:21:55.607Z,31.34
2017-06-20T11:24:23.127Z,31.28
2017-06-20T11:26:50.654Z,31.28
2017-06-20T11:29:18.184Z,31.40
2017-06-20T11:31:45.724Z,31.37
2017-06-20T11:34:13.247Z,31.47
2017-06-20T11:36:40.803Z,31.80
2017-06-20T11:39:08.312Z,32.10
2017-06-20T11:41:35.867Z,32.25
2017-06-20T11:44:03.374Z,32.39
2017-06-20T11:46:30.944Z,32.53
2017-06-20T11:48:58.461Z,32.59
2017-06-20T11:51:25.987Z,32.53
2017-06-20T11:53:53.561Z,32.23
2017-06-20T11:56:21.083Z,32.25
2017-06-20T11:58:48.628Z,32.25
2017-06-20T12:01:16.145Z,32.14
2017-06-20T12:03:43.689Z,32.00
2017-06-20T12:06:11.232Z,32.33
2017-06-20T12:08:38.797Z,32.50
2017-06-20T12:11:06.308Z,32.68
2017-06-20T12:13:33.860Z,32.54
2017-06-20T12:16:01.383Z,32.61
2017-06-20T12:18:29.016Z,32.79
2017-06-20T12:20:56.527Z,32.93
2017-06-20T12:23:24.073Z,32.97
2017-06-20T12:25:51.585Z,32.72
2017-06-20T12:28:19.115Z,32.76
2017-06-20T12:30:46.641Z,32.79
2017-06-20T12:33:14.198Z,32.68
2017-06-20T12:35:41.711Z,32.52
2017-06-20T12:38:09.263Z,32.69
2017-06-20T12:40:36.785Z,32.91
2017-06-20T12:43:04.315Z,33.37
2017-06-20T12:45:31.836Z,33.33
2017-06-20T12:47:59.368Z,33.44
2017-06-20T12:50:26.895Z,33.42
2017-06-20T12:52:54.436Z,33.56
2017-06-20T12:55:21.940Z,33.66
2017-06-20T12:57:49.504Z,33.60
2017-06-20T13:00:17.027Z,33.70
2017-06-20T13:02:44.583Z,33.57
2017-06-20T13:05:12.100Z,33.73
2017-06-20T13:07:39.654Z,33.89
2017-06-20T13:10:07.203Z,34.07
2017-06-20T13:12:34.748Z,34.51
2017-06-20T13:15:02.292Z,34.24
2017-06-20T13:17:29.856Z,34.35
2017-06-20T13:19:57.390Z,33.84
2017-06-20T13:22:24.906Z,33.66
2017-06-20T13:24:52.450Z,33.78
2017-06-20T13:27:19.962Z,33.85
2017-06-20T13:29:47.523Z,34.19
2017-06-20T13:32:15.032Z,34.45
2017-06-20T13:34:42.570Z,34.38
2017-06-20T13:37:10.104Z,34.42
2017-06-20T13:39:37.640Z,34.38
2017-06-20T13:42:05.151Z,33.85
2017-06-20T13:44:32.700Z,33.87
2017-06-20T13:47:00.260Z,33.99
2017-06-20T13:49:27.845Z,34.45
2017-06-20T13:51:55.369Z,34.26
2017-06-20T13:54:22.935Z,34.36
2017-06-20T13:56:50.458Z,34.37
2017-06-20T13:59:17.967Z,34.38
2017-06-20T14:01:45.527Z,34.47
2017-06-20T14:04:13.128Z,34.70
2017-06-20T14:06:40.707Z,35.10
2017-06-20T14:09:08.340Z,35.15
2017-06-20T14:11:35.943Z,35.06
2017-06-20T14:14:03.556Z,35.51
2017-06-20T14:16:31.105Z,35.58
2017-06-20T14:18:58.635Z,35.93
2017-06-20T14:21:26.187Z,35.42
2017-06-20T14:23:53.700Z,35.26
2017-06-20T14:26:21.260Z,35.61
2017-06-20T14:28:48.827Z,36.11
2017-06-20T14:31:16.388Z,35.71
2017-06-20T14:33:43.916Z,35.88
2017-06-20T14:36:11.471Z,35.37
2017-06-20T14:38:38.983Z,35.13
2017-06-20T14:41:06.532Z,35.42
2017-06-20T14:43:34.044Z,35.43
2017-06-20T14:46:01.593Z,34.98
2017-06-20T14:48:29.108Z,34.85
2017-06-20T14:50:56.666Z,34.48
2017-06-20T14:53:24.198Z,34.83
2017-06-20T14:55:51.754Z,35.25
2017-06-20T14:58:19.277Z,35.59
2017-06-20T15:00:46.815Z,35.35
2017-06-20T15:03:14.369Z,35.26
2017-06-20T15:05:41.956Z,34.88
2017-06-20T15:08:09.503Z,34.79
2017-06-20T15:10:37.072Z,35.19
2017-06-20T15:13:04.652Z,35.63
2017-06-20T15:15:32.209Z,35.75
2017-06-20T15:17:59.727Z,35.79
2017-06-20T15:20:27.286Z,36.07
2017-06-20T15:22:54.836Z,35.89
2017-06-20T15:25:22.397Z,36.01
2017-06-20T15:27:49.927Z,35.56
2017-06-20T15:30:17.488Z,35.72
2017-06-20T15:32:45.740Z,35.49
2017-06-20T15:35:13.327Z,35.49
2017-06-20T15:37:40.854Z,35.10
2017-06-20T15:40:08.423Z,35.06
2017-06-20T15:42:35.984Z,34.68
2017-06-20T15:45:03.668Z,35.05
2017-06-20T15:47:31.199Z,34.99
2017-06-20T15:49:58.703Z,35.23
2017-06-20T15:52:26.263Z,35.64
2017-06-20T15:54:53.788Z,36.24
2017-06-20T15:57:21.364Z,36.20
2017-06-20T15:59:48.896Z,36.03
2017-06-20T16:02:16.460Z,35.05
2017-06-20T16:04:43.972Z,34.79
2017-06-20T16:07:11.660Z,34.65
2017-06-20T16:09:39.188Z,34.80
2017-06-20T16:12:06.716Z,35.37
2017-06-20T16:14:34.269Z,34.85
2017-06-20T16:17:01.781Z,35.14
2017-06-20T16:19:29.343Z,35.71
2017-06-20T16:21:56.855Z,35.30
2017-06-20T16:24:24.406Z,35.43
2017-06-20T16:26:51.931Z,35.36
2017-06-20T16:29:19.658Z,35.25
2017-06-20T16:31:47.183Z,34.73
2017-06-20T16:34:14.721Z,34.08
2017-06-20T16:36:42.357Z,34.99
2017-06-20T16:39:09.896Z,35.18
2017-06-20T16:41:37.443Z,34.91
2017-06-20T16:44:04.930Z,35.17
2017-06-20T16:46:32.700Z,35.20
2017-06-20T16:49:00.213Z,34.69
2017-06-20T16:51:27.744Z,34.18
2017-06-20T16:53:55.304Z,33.98
2017-06-20T16:56:22.823Z,33.61
2017-06-20T16:58:50.608Z,33.76
2017-06-20T17:01:18.136Z,33.94
2017-06-20T17:03:45.668Z,33.86
2017-06-20T17:06:13.242Z,34.02
2017-06-20T17:08:40.767Z,34.04
2017-06-20T17:11:08.491Z,34.07
2017-06-20T17:13:36.007Z,33.99
2017-06-20T17:16:03.529Z,33.92
2017-06-20T17:18:31.104Z,34.35
2017-06-20T17:20:58.621Z,34.04
2017-06-20T17:23:26.188Z,33.80
2017-06-20T17:25:53.707Z,33.82
2017-06-20T17:28:21.279Z,33.93
2017-06-20T17:30:48.808Z,33.43
2017-06-20T17:33:16.347Z,33.25
2017-06-20T17:35:43.934Z,33.17
2017-06-20T17:38:11.447Z,32.90
2017-06-20T17:40:39.044Z,32.47
2017-06-20T17:43:06.579Z,32.75
2017-06-20T17:45:34.184Z,32.74
2017-06-20T17:48:01.750Z,33.04
2017-06-20T17:50:29.291Z,33.26
2017-06-20T17:52:56.855Z,33.16
2017-06-20T17:55:24.399Z,32.96
2017-06-20T17:57:52.038Z,32.50
2017-06-20T18:00:19.679Z,32.48
2017-06-20T18:02:47.247Z,32.52
2017-06-20T18:05:14.912Z,32.67
2017-06-20T18:07:42.438Z,32.78
2017-06-20T18:10:10.012Z,32.67
2017-06-20T18:12:37.544Z,32.88
2017-06-20T18:15:05.109Z,32.70
2017-06-20T18:17:32.635Z,32.47
2017-06-20T18:20:00.555Z,32.36
2017-06-20T18:22:28.403Z,32.28
2017-06-20T18:24:55.928Z,32.42
2017-06-20T18:27:23.483Z,31.98
2017-06-20T18:29:51.015Z,31.84
2017-06-20T18:32:18.694Z,31.81
2017-06-20T18:34:46.268Z,31.99
2017-06-20T18:37:13.831Z,31.82
2017-06-20T18:39:41.400Z,31.57
2017-06-20T18:42:08.937Z,31.24
2017-06-20T18:44:36.597Z,31.07
2017-06-20T18:47:04.090Z,31.18
2017-06-20T18:49:31.613Z,31.18
2017-06-20T18:51:59.168Z,31.22
2017-06-20T18:54:26.700Z,31.17
2017-06-20T18:56:54.281Z,31.16
2017-06-20T18:59:21.795Z,31.00
2017-06-20T19:01:49.487Z,31.17
2017-06-20T19:04:17.020Z,30.85
2017-06-20T19:06:44.554Z,30.88
2017-06-20T19:09:12.131Z,31.02
2017-06-20T19:11:39.649Z,30.90
2017-06-20T19:14:07.213Z,30.43
2017-06-20T19:16:34.790Z,30.40
2017-06-20T19:19:02.684Z,30.58
2017-06-20T19:21:30.221Z,30.53
2017-06-20T19:23:57.758Z,30.43
2017-06-20T19:26:25.339Z,30.54
2017-06-20T19:28:52.859Z,30.48
2017-06-20T19:31:20.483Z,30.41
2017-06-20T19:33:48.031Z,30.27
2017-06-20T19:36:15.908Z,30.23
2017-06-20T19:38:43.432Z,30.19
2017-06-20T19:41:10.957Z,29.98
2017-06-20T19:43:38.533Z,30.02
2017-06-20T19:46:06.086Z,30.07
2017-06-20T19:48:33.643Z,29.79
2017-06-20T19:51:01.179Z,29.53
2017-06-20T19:53:28.772Z,29.38
2017-06-20T19:55:56.285Z,29.49
2017-06-20T19:58:23.988Z,29.55
2017-06-20T20:00:51.530Z,29.33
2017-06-20T20:03:19.067Z,29.16
2017-06-20T20:05:46.648Z,29.15
2017-06-20T20:08:14.214Z,28.96
2017-06-20T20:10:41.891Z,28.89
2017-06-20T20:13:09.449Z,28.97
2017-06-20T20:15:37.016Z,28.93
2017-06-20T20:18:04.594Z,28.83
2017-06-20T20:20:32.183Z,28.71
2017-06-20T20:22:59.811Z,28.97
2017-06-20T20:25:27.324Z,28.82
2017-06-20T20:27:54.879Z,28.82
2017-06-20T20:30:22.396Z,28.77
2017-06-20T20:32:50.071Z,28.51
2017-06-20T20:35:17.612Z,28.44
2017-06-20T20:37:45.136Z,28.50
2017-06-20T20:40:12.705Z,28.50
2017-06-20T20:42:40.235Z,28.28
2017-06-20T20:45:07.847Z,28.26
2017-06-20T20:47:35.499Z,28.08
2017-06-20T20:50:03.244Z,28.09
2017-06-20T20:52:30.813Z,28.22
2017-06-20T20:54:58.383Z,27.98
2017-06-20T20:57:26.143Z,27.95
2017-06-20T20:59:53.700Z,27.95
2017-06-20T21:02:21.252Z,27.81
2017-06-20T21:04:48.773Z,27.90
2017-06-20T21:07:16.375Z,27.74
2017-06-20T21:09:43.922Z,27.88
2017-06-20T21:12:11.785Z,27.53
2017-06-20T21:14:39.307Z,27.64
2017-06-20T21:17:06.831Z,27.96
2017-06-20T21:19:34.398Z,27.79
2017-06-20T21:22:01.916Z,27.47
2017-06-20T21:24:29.477Z,27.33
2017-06-20T21:26:57.004Z,27.22
2017-06-20T21:29:24.674Z,27.20
2017-06-20T21:31:52.419Z,27.14
2017-06-20T21:34:19.954Z,27.13
2017-06-20T21:36:47.501Z,27.14
2017-06-20T21:39:15.036Z,27.16
2017-06-20T21:41:42.619Z,27.28
2017-06-20T21:44:10.168Z,27.10
2017-06-20T21:46:37.738Z,26.99
2017-06-20T21:49:05.263Z,26.92
2017-06-20T21:51:32.937Z,26.75
2017-06-20T21:54:00.466Z,27.03
2017-06-20T21:56:28.367Z,26.56
2017-06-20T21:58:55.895Z,26.26
2017-06-20T22:01:23.412Z,26.36
2017-06-20T22:03:50.975Z,26.29
2017-06-20T22:06:18.491Z,26.27
2017-06-20T22:08:46.043Z,26.15
2017-06-20T22:11:13.570Z,26.02
2017-06-20T22:13:41.235Z,26.12
2017-06-20T22:16:08.775Z,25.92
2017-06-20T22:18:36.303Z,25.94
2017-06-20T22:21:03.862Z,25.76
2017-06-20T22:23:31.408Z,25.93
2017-06-20T22:25:58.995Z,25.92
2017-06-20T22:28:26.628Z,26.10
2017-06-20T22:30:54.364Z,25.98
2017-06-20T22:33:21.888Z,25.85
2017-06-20T22:35:49.482Z,25.73
2017-06-20T22:38:17.054Z,25.77
2017-06-20T22:40:44.644Z,25.68
2017-06-20T22:43:12.211Z,25.59
2017-06-20T22:45:39.819Z,25.41
2017-06-20T22:48:07.503Z,25.47
2017-06-20T22:50:35.099Z,25.80
2017-06-20T22:53:02.665Z,25.56
2017-06-20T22:55:30.215Z,25.56
2017-06-20T22:57:57.720Z,25.50
2017-06-20T23:00:25.608Z,25.66
2017-06-20T23:02:53.151Z,25.41
2017-06-20T23:05:20.662Z,25.32
2017-06-20T23:07:48.215Z,25.52
2017-06-20T23:10:15.741Z,25.21
2017-06-20T23:12:43.286Z,25.56
2017-06-20T23:15:10.858Z,25.18
2017-06-20T23:17:38.526Z,24.97
2017-06-20T23:20:06.050Z,24.68
2017-06-20T23:22:33.598Z,24.50
2017-06-20T23:25:01.115Z,24.36
2017-06-20T23:27:28.657Z,24.52
2017-06-20T23:29:56.207Z,24.48
2017-06-20T23:32:23.786Z,24.82
2017-06-20T23:34:51.483Z,24.31
2017-06-20T23:37:19.007Z,24.14
2017-06-20T23:39:46.532Z,24.04
2017-06-20T23:42:14.095Z,24.14
2017-06-20T23:44:41.611Z,24.24
2017-06-20T23:47:09.283Z,24.32
2017-06-20T23:49:36.806Z,24.17
2017-06-20T23:52:04.342Z,24.12
2017-06-20T23:54:31.915Z,24.12
2017-06-20T23:56:59.426Z,23.94
2017-06-20T23:59:26.979Z,23.92
